createdAt,value
2022-12-09T00:01:48.119Z,100902.00
2022-12-09T00:07:18.428Z,101133.72
2022-12-09T00:12:36.520Z,101141.56
2022-12-09T00:17:46.914Z,101109.16
2022-12-09T00:23:11.692Z,101130.34
2022-12-09T00:28:28.499Z,100937.63
2022-12-09T00:33:42.105Z,101123.97
2022-12-09T00:38:49.071Z,100948.22
2022-12-09T00:44:18.161Z,101018.78
2022-12-09T00:49:24.772Z,100970.38
2022-12-09T00:55:11.879Z,100914.34
2022-12-09T01:00:18.924Z,101142.84
2022-12-09T01:05:14.518Z,100980.38
2022-12-09T01:10:11.652Z,101131.72
2022-12-09T01:15:10.102Z,101166.75
2022-12-09T01:20:06.537Z,100971.06
2022-12-09T01:25:05.904Z,100967.84
2022-12-09T01:30:03.202Z,101163.50
2022-12-09T01:35:03.366Z,101172.31
2022-12-09T01:40:48.459Z,100950.75
2022-12-09T02:00:11.671Z,100893.59
2022-12-09T02:06:38.454Z,100979.78
2022-12-09T02:11:49.442Z,100977.59
2022-12-09T02:16:57.925Z,101099.09
2022-12-09T02:22:19.303Z,101021.69
2022-12-09T02:27:37.179Z,101074.94
2022-12-09T02:33:15.538Z,100941.16
2022-12-09T02:38:28.848Z,101139.28
2022-12-09T02:43:49.444Z,100986.38
2022-12-09T02:49:08.682Z,101099.16
2022-12-09T02:54:15.901Z,100972.28
2022-12-09T02:59:24.580Z,101098.47
2022-12-09T03:04:30.710Z,101007.25
2022-12-09T03:09:31.484Z,100989.69
2022-12-09T03:14:31.366Z,101082.66
2022-12-09T03:19:40.163Z,101089.09
2022-12-09T03:24:40.792Z,101008.75
2022-12-09T03:29:42.131Z,101157.25
2022-12-09T03:34:51.227Z,101062.88
2022-12-09T03:39:53.258Z,100977.81
2022-12-09T03:44:54.397Z,101107.53
2022-12-09T03:49:48.687Z,101079.63
2022-12-09T03:54:50.294Z,101029.44
2022-12-09T03:59:48.938Z,101053.16
2022-12-09T04:04:43.912Z,101074.69
2022-12-09T04:10:09.561Z,101125.94
2022-12-09T04:15:47.548Z,100982.03
2022-12-09T04:20:46.722Z,101055.09
2022-12-09T04:25:51.793Z,101136.00
2022-12-09T04:30:55.340Z,100995.19
2022-12-09T04:36:12.574Z,101050.97
2022-12-09T04:41:21.647Z,100959.31
2022-12-09T04:46:18.717Z,101047.81
2022-12-09T04:51:40.288Z,101036.94
2022-12-09T04:56:55.207Z,100982.28
2022-12-09T05:01:56.091Z,101074.16
2022-12-09T05:07:13.879Z,100989.25
2022-12-09T05:12:15.199Z,101133.41
2022-12-09T05:17:22.850Z,100938.50
2022-12-09T05:27:58.930Z,101155.06
2022-12-09T05:35:24.527Z,101019.44
2022-12-09T05:53:32.220Z,101206.22
2022-12-09T05:57:57.445Z,100972.91
2022-12-09T06:04:28.749Z,100970.47
2022-12-09T06:15:58.146Z,101230.88
2022-12-09T06:21:31.717Z,101054.91
2022-12-09T06:27:30.348Z,101153.13
2022-12-09T06:50:45.257Z,101228.81
2022-12-09T06:55:38.558Z,101099.00
2022-12-09T07:00:33.448Z,101173.00
2022-12-09T07:05:27.815Z,101250.47
2022-12-09T07:10:22.933Z,101209.13
2022-12-09T07:15:16.512Z,101156.88
2022-12-09T07:20:11.321Z,101244.19
2022-12-09T07:25:06.103Z,101038.44
2022-12-09T07:30:04.155Z,101055.09
2022-12-09T07:34:57.877Z,101198.28
2022-12-09T07:39:51.451Z,101206.69
2022-12-09T07:44:44.964Z,101227.56
2022-12-09T07:49:40.000Z,101169.47
2022-12-09T07:54:33.919Z,101173.44
2022-12-09T07:59:27.183Z,101127.00
2022-12-09T08:04:20.882Z,101220.72
2022-12-09T08:09:16.101Z,101221.97
2022-12-09T08:14:14.252Z,101220.91
2022-12-09T08:19:08.161Z,101218.19
2022-12-09T08:24:03.470Z,101145.81
2022-12-09T08:28:59.023Z,101099.97
2022-12-09T08:33:54.133Z,101235.69
2022-12-09T08:38:48.736Z,101203.84
2022-12-09T08:43:43.055Z,101144.03
2022-12-09T08:48:39.838Z,101164.63
2022-12-09T08:53:39.941Z,101220.13
2022-12-09T08:59:06.090Z,101190.09
2022-12-09T09:04:02.762Z,101160.97
2022-12-09T09:08:57.572Z,101194.50
2022-12-09T09:13:52.477Z,101084.25
2022-12-09T09:18:49.875Z,101169.88
2022-12-09T09:23:45.384Z,101178.47
2022-12-09T09:28:39.217Z,100962.09
2022-12-09T09:33:32.732Z,101166.06
2022-12-09T09:38:27.040Z,101135.63
2022-12-09T09:43:25.279Z,101033.25
2022-12-09T09:48:21.543Z,101016.94
2022-12-09T09:53:20.321Z,100963.44
2022-12-09T09:58:19.791Z,101094.03
2022-12-09T10:03:22.167Z,100892.06
2022-12-09T10:08:32.408Z,100942.19
2022-12-09T10:13:38.682Z,101095.13
2022-12-09T10:18:38.691Z,100947.91
2022-12-09T10:23:34.132Z,101074.34
2022-12-09T10:28:30.652Z,101078.09
2022-12-09T10:33:30.539Z,101073.06
2022-12-09T10:38:26.900Z,101020.50
2022-12-09T10:43:38.891Z,101011.28
2022-12-09T10:48:36.451Z,101069.88
2022-12-09T10:53:33.164Z,101069.56
2022-12-09T10:58:29.032Z,101050.97
2022-12-09T11:03:28.725Z,101025.66
2022-12-09T11:08:24.158Z,101030.47
2022-12-09T11:13:21.654Z,101003.38
2022-12-09T11:18:21.171Z,100952.25
2022-12-09T11:23:17.919Z,101012.16
2022-12-09T11:28:26.159Z,100891.94
2022-12-09T11:33:27.240Z,100983.66
2022-12-09T11:38:36.191Z,101029.16
2022-12-09T11:43:42.084Z,101019.69
2022-12-09T11:48:41.856Z,100897.31
2022-12-09T11:53:41.944Z,100846.25
2022-12-09T11:58:42.159Z,100904.78
2022-12-09T12:03:39.596Z,100981.13
2022-12-09T12:08:38.117Z,100874.63
2022-12-09T12:13:41.570Z,100980.56
2022-12-09T12:18:43.239Z,100953.34
2022-12-09T12:23:52.030Z,100861.00
2022-12-09T12:29:11.418Z,100948.38
2022-12-09T12:34:26.008Z,100991.50
2022-12-09T12:39:34.888Z,100992.34
2022-12-09T12:45:00.640Z,100957.84
2022-12-09T12:50:20.050Z,100920.59
2022-12-09T12:55:24.726Z,100963.38
2022-12-09T13:00:22.560Z,100890.56
2022-12-09T13:05:22.558Z,100920.59
2022-12-09T13:10:30.660Z,100868.81
2022-12-09T13:15:32.447Z,100948.25
2022-12-09T13:20:31.202Z,100945.63
2022-12-09T13:25:35.729Z,100946.56
2022-12-09T13:30:37.427Z,100924.06
2022-12-09T13:35:40.169Z,100915.13
2022-12-09T13:40:36.937Z,100931.38
2022-12-09T13:45:35.071Z,100922.84
2022-12-09T13:50:33.210Z,100949.22
2022-12-09T13:55:39.998Z,100906.72
2022-12-09T14:00:35.908Z,100945.09
2022-12-09T14:05:32.672Z,100882.63
2022-12-09T14:10:40.696Z,100849.75
2022-12-09T14:15:45.532Z,100738.72
2022-12-09T14:20:40.897Z,100902.81
2022-12-09T14:25:51.430Z,100908.53
2022-12-09T14:30:52.481Z,100922.88
2022-12-09T14:35:50.428Z,100825.47
2022-12-09T14:40:56.646Z,100823.78
2022-12-09T14:46:01.186Z,100845.56
2022-12-09T14:51:20.520Z,100790.81
2022-12-09T14:56:21.100Z,100698.91
2022-12-09T15:01:18.239Z,100884.44
2022-12-09T15:06:17.983Z,100860.72
2022-12-09T15:11:15.465Z,100792.66
2022-12-09T15:16:11.051Z,100880.72
2022-12-09T15:21:06.320Z,100880.66
2022-12-09T15:26:01.692Z,100842.59
2022-12-09T15:30:57.658Z,100751.25
2022-12-09T15:35:55.094Z,100828.09
2022-12-09T15:41:03.842Z,100774.28
2022-12-09T15:45:57.834Z,100785.34
2022-12-09T15:50:55.644Z,100792.38
2022-12-09T15:55:54.225Z,100827.50
2022-12-09T16:01:02.587Z,100719.97
2022-12-09T16:06:01.902Z,100758.28
2022-12-09T16:10:58.665Z,100840.94
2022-12-09T16:15:57.323Z,100730.38
2022-12-09T16:21:00.704Z,100736.28
2022-12-09T16:26:07.399Z,100808.31
2022-12-09T16:31:04.431Z,100786.78
2022-12-09T16:36:02.312Z,100711.34
2022-12-09T16:41:11.324Z,100795.13
2022-12-09T16:46:37.354Z,100619.84
2022-12-09T16:51:30.679Z,100762.81
2022-12-09T16:56:44.080Z,100616.19
2022-12-09T17:01:43.362Z,100672.31
2022-12-09T17:06:36.715Z,100727.84
2022-12-09T17:11:31.694Z,100742.00
2022-12-09T17:16:26.989Z,100773.03
2022-12-09T17:21:20.779Z,100650.69
2022-12-09T17:26:22.499Z,100677.44
2022-12-09T17:31:19.710Z,100721.50
2022-12-09T17:36:19.218Z,100738.94
2022-12-09T17:41:16.049Z,100665.72
2022-12-09T17:46:13.100Z,100700.38
2022-12-09T17:51:12.178Z,100664.66
2022-12-09T17:56:15.030Z,100633.53
2022-12-09T18:01:14.794Z,100618.16
2022-12-09T18:06:10.376Z,100733.50
2022-12-09T18:11:05.640Z,100746.78
2022-12-09T18:15:59.590Z,100722.53
2022-12-09T18:20:53.405Z,100730.38
2022-12-09T18:25:49.339Z,100719.59
2022-12-09T18:30:47.234Z,100546.69
2022-12-09T18:35:44.068Z,100721.97
2022-12-09T18:41:01.141Z,100706.72
2022-12-09T18:45:56.737Z,100583.44
2022-12-09T18:50:53.720Z,100638.59
2022-12-09T18:56:00.345Z,100672.81
2022-12-09T19:01:01.165Z,100528.41
2022-12-09T19:05:59.527Z,100658.06
2022-12-09T19:10:55.922Z,100692.66
2022-12-09T19:15:49.589Z,100713.66
2022-12-09T19:20:44.656Z,100715.41
2022-12-09T19:25:42.168Z,100714.81
2022-12-09T19:30:35.449Z,100613.81
2022-12-09T19:35:28.804Z,100654.44
2022-12-09T19:40:33.719Z,100705.47
2022-12-09T19:45:27.351Z,100590.38
2022-12-09T19:50:22.674Z,100590.19
2022-12-09T19:55:16.039Z,100642.63
2022-12-09T20:00:13.226Z,100499.69
2022-12-09T20:05:07.519Z,100677.06
2022-12-09T20:10:00.932Z,100670.22
2022-12-09T20:14:54.202Z,100612.00
2022-12-09T20:19:48.814Z,100617.94
2022-12-09T20:24:43.335Z,100617.31
2022-12-09T20:29:38.458Z,100610.59
2022-12-09T20:34:32.175Z,100638.88
2022-12-09T20:39:27.188Z,100528.03
2022-12-09T20:44:24.459Z,100655.38
2022-12-09T20:49:19.995Z,100644.78
2022-12-09T20:54:14.088Z,100605.91
2022-12-09T20:59:10.680Z,100650.31
2022-12-09T21:04:06.011Z,100628.81
2022-12-09T21:09:02.574Z,100517.69
2022-12-09T21:14:01.532Z,100584.03
2022-12-09T21:19:02.958Z,100435.88
2022-12-09T21:23:56.682Z,100609.25
2022-12-09T21:28:52.559Z,100581.28
2022-12-09T21:33:48.150Z,100522.22
2022-12-09T21:38:46.339Z,100409.53
2022-12-09T21:43:42.840Z,100386.16
2022-12-09T21:48:37.500Z,100559.72
2022-12-09T21:53:32.053Z,100499.75
2022-12-09T21:58:36.587Z,100604.41
2022-12-09T22:03:32.167Z,100467.94
2022-12-09T22:08:26.260Z,100435.50
2022-12-09T22:13:23.255Z,100398.69
2022-12-09T22:18:24.843Z,100394.66
2022-12-09T22:23:23.085Z,100375.25
2022-12-09T22:28:32.224Z,100531.47
2022-12-09T22:33:27.339Z,100424.25
2022-12-09T22:38:25.927Z,100357.47
2022-12-09T22:43:33.662Z,100355.63
2022-12-09T22:48:37.173Z,100512.53
2022-12-09T22:53:30.703Z,100353.75
2022-12-09T22:58:24.296Z,100453.66
2022-12-09T23:03:21.120Z,100397.38
2022-12-09T23:08:17.512Z,100497.38
2022-12-09T23:13:14.150Z,100347.38
2022-12-09T23:18:09.442Z,100471.22
2022-12-09T23:23:05.936Z,100468.91
2022-12-09T23:28:02.410Z,100426.00
2022-12-09T23:32:58.696Z,100477.81
2022-12-09T23:37:54.048Z,100410.25
2022-12-09T23:42:48.058Z,100470.34
2022-12-09T23:47:42.723Z,100353.69
2022-12-09T23:52:38.187Z,100394.69
2022-12-09T23:57:31.438Z,100295.78
